Time;durP1;ratioP1;P1;durP2;ratioP2;P2;SDS_P1;SDS_P2;PMS_P1;PMS_P2;Temp;Humidity;BMP_temperature;BMP_pressure;BME280_temperature;BME280_humidity;BME280_pressure;Samples;Min_cycle;Max_cycle;Signal;HPM_P1;HPM_P2
2023/09/24 00:02:14;;;;;;;8.87;5.20;;;;;;;-148.15;100.00;61821.78;4881610;29;20139;-94
2023/09/24 00:04:41;;;;;;;8.20;5.00;;;;;;;-148.15;100.00;61821.78;4883213;29;20642;-95
2023/09/24 00:07:07;;;;;;;9.18;5.13;;;;;;;-148.15;100.00;61821.78;4916599;29;20094;-95
2023/09/24 00:09:33;;;;;;;11.43;5.22;;;;;;;-148.15;100.00;61821.78;4909235;29;20524;-95
2023/09/24 00:11:58;;;;;;;8.97;4.97;;;;;;;-148.15;100.00;61821.78;4898286;29;20044;-96
2023/09/24 00:14:26;;;;;;;7.10;5.20;;;;;;;-148.15;100.00;61821.78;4897785;29;20040;-96
2023/09/24 00:16:51;;;;;;;9.98;5.32;;;;;;;-148.15;100.00;61821.78;4898162;29;20035;-94
2023/09/24 00:19:17;;;;;;;11.63;5.30;;;;;;;-148.15;100.00;61821.78;4898463;29;20033;-94
2023/09/24 00:21:43;;;;;;;8.43;5.57;;;;;;;-148.15;100.00;61821.78;4897631;29;20428;-95
2023/09/24 00:24:10;;;;;;;9.07;5.43;;;;;;;-148.15;100.00;61821.78;4881724;29;20042;-95
2023/09/24 00:26:35;;;;;;;8.85;5.28;;;;;;;-148.15;100.00;61821.78;4897907;29;20115;-93
2023/09/24 00:29:01;;;;;;;8.60;5.03;;;;;;;-148.15;100.00;61821.78;4898771;29;20052;-95
2023/09/24 00:31:26;;;;;;;13.17;5.80;;;;;;;-148.15;100.00;61821.78;4897720;29;20033;-96
2023/09/24 00:33:52;;;;;;;10.50;5.87;;;;;;;-148.15;100.00;61821.78;4898337;29;20297;-96
2023/09/24 00:36:19;;;;;;;8.45;5.75;;;;;;;-148.15;100.00;61821.78;4907990;29;20044;-95
2023/09/24 00:38:45;;;;;;;10.10;5.72;;;;;;;-148.15;100.00;61821.78;4898802;29;20404;-93
2023/09/24 00:41:10;;;;;;;14.10;5.80;;;;;;;-148.15;100.00;61821.78;4895838;29;20029;-93
2023/09/24 00:43:36;;;;;;;10.57;5.97;;;;;;;-148.15;100.00;61821.78;4897381;29;20029;-93
2023/09/24 00:46:07;;;;;;;16.58;6.05;;;;;;;-148.15;100.00;61821.78;4897078;29;20029;-93
2023/09/24 00:48:34;;;;;;;10.48;5.82;;;;;;;-148.15;100.00;61821.78;4916870;29;20056;-94
2023/09/24 00:51:02;;;;;;;9.40;5.70;;;;;;;-148.15;100.00;61821.78;4908385;29;20055;-94
2023/09/24 00:53:32;;;;;;;10.80;6.17;;;;;;;-148.15;100.00;61821.78;4915278;29;20087;-93
2023/09/24 00:55:58;;;;;;;11.43;6.73;;;;;;;-148.15;100.00;61821.78;4904932;29;20297;-93
2023/09/24 00:58:27;;;;;;;14.95;5.93;;;;;;;-148.15;100.00;61821.78;4896645;29;20627;-93
2023/09/24 01:00:54;;;;;;;9.32;6.10;;;;;;;-148.15;100.00;61821.78;4896000;29;20039;-94
2023/09/24 01:03:23;;;;;;;9.98;6.82;;;;;;;-148.15;100.00;61821.78;4896864;29;20021;-95
2023/09/24 01:05:50;;;;;;;15.43;7.80;;;;;;;-148.15;100.00;61821.78;4899307;29;20071;-93
2023/09/24 01:08:20;;;;;;;15.52;7.80;;;;;;;-148.15;100.00;61821.78;4896688;29;20042;-94
2023/09/24 01:10:47;;;;;;;18.50;8.95;;;;;;;-148.15;100.00;61821.78;4896226;29;20052;-94
2023/09/24 01:13:15;;;;;;;13.43;7.87;;;;;;;-148.15;100.00;61821.78;4896701;29;20035;-93
2023/09/24 01:15:44;;;;;;;11.83;8.10;;;;;;;-148.15;100.00;61821.78;4905591;29;20292;-92
2023/09/24 01:18:09;;;;;;;13.23;7.60;;;;;;;-148.15;100.00;61821.78;4915234;29;20107;-94
2023/09/24 01:20:36;;;;;;;11.82;8.07;;;;;;;-148.15;100.00;61821.78;4897528;29;20544;-94
2023/09/24 01:23:04;;;;;;;13.25;7.75;;;;;;;-148.15;100.00;61821.78;4922267;29;20031;-94
2023/09/24 01:25:36;;;;;;;12.23;8.13;;;;;;;-148.15;100.00;61821.78;4925369;29;20009;-94
2023/09/24 01:28:03;;;;;;;12.10;7.97;;;;;;;-148.15;100.00;61821.78;4908034;29;20298;-93
2023/09/24 01:30:29;;;;;;;15.45;9.45;;;;;;;-148.15;100.00;61821.78;4912889;29;20035;-94
2023/09/24 01:32:54;;;;;;;16.52;10.55;;;;;;;-148.15;100.00;61821.78;4913222;29;20028;-95
2023/09/24 01:35:26;;;;;;;19.63;11.73;;;;;;;-148.15;100.00;61821.78;4923839;29;20533;-94
2023/09/24 01:37:52;;;;;;;16.10;11.65;;;;;;;-148.15;100.00;61821.78;4901092;29;20032;-94
2023/09/24 01:40:21;;;;;;;20.05;12.23;;;;;;;-148.15;100.00;61821.78;4896027;29;20036;-94
2023/09/24 01:42:47;;;;;;;16.77;10.75;;;;;;;-148.15;100.00;61821.78;4896292;29;20107;-94
2023/09/24 01:45:13;;;;;;;16.55;10.25;;;;;;;-148.15;100.00;61821.78;4896092;29;20062;-92
2023/09/24 01:47:38;;;;;;;16.02;10.05;;;;;;;-148.15;100.00;61821.78;4906909;29;20035;-95
2023/09/24 01:50:06;;;;;;;18.83;10.40;;;;;;;-148.15;100.00;61821.78;4895858;29;20036;-92
2023/09/24 01:52:34;;;;;;;16.58;10.15;;;;;;;-148.15;100.00;61821.78;4896436;29;20403;-95
2023/09/24 01:54:59;;;;;;;14.23;8.95;;;;;;;-148.15;100.00;61821.78;4902867;29;20036;-94
2023/09/24 01:57:25;;;;;;;16.53;9.00;;;;;;;-148.15;100.00;61821.78;4916357;29;20032;-95
2023/09/24 01:59:50;;;;;;;13.73;8.43;;;;;;;-148.15;100.00;61821.78;4896031;29;20132;-95
2023/09/24 02:02:15;;;;;;;11.70;8.60;;;;;;;-148.15;100.00;61821.78;4884684;29;20052;-94
2023/09/24 02:04:41;;;;;;;14.30;8.63;;;;;;;-148.15;100.00;61821.78;4900471;29;20040;-94
2023/09/24 02:07:08;;;;;;;17.05;8.95;;;;;;;-148.15;100.00;61821.78;4896123;29;20104;-94
2023/09/24 02:09:35;;;;;;;12.98;8.73;;;;;;;-148.15;100.00;61821.78;4896352;29;20024;-94
2023/09/24 02:12:00;;;;;;;14.68;9.00;;;;;;;-148.15;100.00;61821.78;4882755;29;20060;-95
2023/09/24 02:14:26;;;;;;;17.30;9.80;;;;;;;-148.15;100.00;61821.78;4895485;29;20051;-93
2023/09/24 02:16:51;;;;;;;16.90;9.53;;;;;;;-148.15;100.00;61821.78;4907338;29;20040;-94
2023/09/24 02:19:18;;;;;;;16.67;10.90;;;;;;;-148.15;100.00;61821.78;4906195;29;20028;-93
2023/09/24 02:21:43;;;;;;;12.90;9.88;;;;;;;-148.15;100.00;61821.78;4921440;29;20028;-94
2023/09/24 02:24:09;;;;;;;19.63;10.40;;;;;;;-148.15;100.00;61821.78;4905556;29;20152;-95
2023/09/24 02:26:34;;;;;;;16.20;10.47;;;;;;;-148.15;100.00;61821.78;4904087;29;20316;-94
2023/09/24 02:29:00;;;;;;;18.48;11.00;;;;;;;-148.15;100.00;61821.78;4901507;29;20123;-93
2023/09/24 02:31:26;;;;;;;21.90;10.87;;;;;;;-148.15;100.00;61821.78;4909252;29;20491;-95
2023/09/24 02:33:52;;;;;;;16.15;10.35;;;;;;;-148.15;100.00;61821.78;4916469;29;20633;-95
2023/09/24 02:36:17;;;;;;;15.93;10.30;;;;;;;-148.15;100.00;61821.78;4919849;29;20036;-95
2023/09/24 02:38:43;;;;;;;15.77;9.93;;;;;;;-148.15;100.00;61821.78;4918037;29;20039;-93
2023/09/24 02:41:10;;;;;;;14.70;10.60;;;;;;;-148.15;100.00;61821.78;4910370;29;20160;-94
2023/09/24 02:43:37;;;;;;;19.00;11.15;;;;;;;-148.15;100.00;61821.78;4898937;29;20025;-94
2023/09/24 02:46:03;;;;;;;16.85;12.02;;;;;;;-148.15;100.00;61821.78;4914405;29;20059;-94
2023/09/24 02:48:29;;;;;;;22.88;14.07;;;;;;;-148.15;100.00;61821.78;4899100;29;20037;-94
2023/09/24 02:50:54;;;;;;;21.60;13.00;;;;;;;-148.15;100.00;61821.78;4898752;29;20035;-94
2023/09/24 02:53:20;;;;;;;23.70;15.25;;;;;;;-148.15;100.00;61821.78;4898139;29;20029;-93
2023/09/24 02:55:46;;;;;;;23.10;15.87;;;;;;;-148.15;100.00;61821.78;4916372;29;20032;-93
2023/09/24 02:58:13;;;;;;;24.85;15.75;;;;;;;-148.15;100.00;61821.78;4918155;29;20052;-95
2023/09/24 03:00:44;;;;;;;26.70;15.70;;;;;;;-148.15;100.00;61821.78;4907302;29;20032;-94
2023/09/24 03:03:10;;;;;;;24.07;15.10;;;;;;;-148.15;100.00;61821.78;4898886;29;20027;-95
2023/09/24 03:05:36;;;;;;;21.87;14.77;;;;;;;-148.15;100.00;61821.78;4898402;29;20292;-94
2023/09/24 03:08:03;;;;;;;19.88;15.13;;;;;;;-148.15;100.00;61821.78;4883117;29;20028;-94
2023/09/24 03:10:33;;;;;;;21.77;15.13;;;;;;;-148.15;100.00;61821.78;4918940;29;20027;-94
2023/09/24 03:12:59;;;;;;;22.38;14.25;;;;;;;-148.15;100.00;61821.78;4916794;29;20453;-95
2023/09/24 03:15:25;;;;;;;21.92;14.27;;;;;;;-148.15;100.00;61821.78;4917706;29;20103;-94
2023/09/24 03:17:51;;;;;;;23.20;14.10;;;;;;;-148.15;100.00;61821.78;4917362;29;20107;-94
2023/09/24 03:20:19;;;;;;;23.10;13.40;;;;;;;-148.15;100.00;61821.78;4911574;29;20051;-94
2023/09/24 03:22:49;;;;;;;20.15;13.05;;;;;;;-148.15;100.00;61821.78;4901938;29;20112;-95
2023/09/24 03:25:20;;;;;;;18.42;12.63;;;;;;;-148.15;100.00;61821.78;4899010;29;20021;-95
2023/09/24 03:27:47;;;;;;;17.92;12.73;;;;;;;-148.15;100.00;61821.78;4898657;29;20036;-94
2023/09/24 03:30:17;;;;;;;19.20;12.18;;;;;;;-148.15;100.00;61821.78;4904589;29;20036;-94
2023/09/24 03:32:46;;;;;;;16.70;10.63;;;;;;;-148.15;100.00;61821.78;4916110;29;20063;-95
2023/09/24 03:35:12;;;;;;;17.67;11.20;;;;;;;-148.15;100.00;61821.78;4914986;29;20280;-95
2023/09/24 03:37:40;;;;;;;14.95;10.73;;;;;;;-148.15;100.00;61821.78;4903738;29;20154;-96
2023/09/24 03:40:15;;;;;;;13.48;9.45;;;;;;;-148.15;100.00;61821.78;4898275;29;20492;-95
2023/09/24 03:42:41;;;;;;;16.08;8.55;;;;;;;-148.15;100.00;61821.78;4897989;29;20087;-94
2023/09/24 03:45:11;;;;;;;15.38;8.50;;;;;;;-148.15;100.00;61821.78;4898312;29;20043;-94
2023/09/24 03:47:37;;;;;;;13.88;7.50;;;;;;;-148.15;100.00;61821.78;4898192;29;20028;-94
2023/09/24 03:50:03;;;;;;;13.32;7.60;;;;;;;-148.15;100.00;61821.78;4902255;29;20043;-94
2023/09/24 03:52:30;;;;;;;15.80;7.47;;;;;;;-148.15;100.00;61821.78;4918860;29;20060;-95
2023/09/24 03:54:57;;;;;;;7.90;6.00;;;;;;;-148.15;100.00;61821.78;4931390;29;20032;-94
2023/09/24 03:57:27;;;;;;;9.35;6.38;;;;;;;-148.15;100.00;61821.78;4908988;29;20028;-94
2023/09/24 03:59:55;;;;;;;13.05;6.00;;;;;;;-148.15;100.00;61821.78;4898274;29;20041;-94
2023/09/24 04:02:22;;;;;;;12.95;6.22;;;;;;;-148.15;100.00;61821.78;4898453;29;20031;-93
2023/09/24 04:04:47;;;;;;;10.25;6.50;;;;;;;-148.15;100.00;61821.78;4903920;29;20051;-94
2023/09/24 04:07:15;;;;;;;12.97;6.33;;;;;;;-148.15;100.00;61821.78;4917007;29;20028;-94
2023/09/24 04:09:43;;;;;;;11.95;6.65;;;;;;;-148.15;100.00;61821.78;4904200;29;20033;-96
2023/09/24 04:12:09;;;;;;;11.48;5.88;;;;;;;-148.15;100.00;61821.78;4925671;29;20103;-96
2023/09/24 04:14:35;;;;;;;10.02;6.15;;;;;;;-148.15;100.00;61821.78;4899053;29;20071;-96
2023/09/24 04:17:09;;;;;;;13.65;6.70;;;;;;;-148.15;100.00;61821.78;4899643;29;20551;-96
2023/09/24 04:19:35;;;;;;;9.47;5.47;;;;;;;-148.15;100.00;61821.78;4900181;29;20040;-96
2023/09/24 04:22:00;;;;;;;10.47;6.33;;;;;;;-148.15;100.00;61821.78;4905702;29;20267;-96
2023/09/24 04:24:26;;;;;;;13.27;6.40;;;;;;;-148.15;100.00;61821.78;4928773;29;20061;-96
2023/09/24 04:26:52;;;;;;;10.57;6.03;;;;;;;-148.15;100.00;61821.78;4921919;29;20033;-96
2023/09/24 04:29:18;;;;;;;13.18;6.25;;;;;;;-148.15;100.00;61821.78;4887615;29;20020;-96
2023/09/24 04:31:44;;;;;;;14.13;6.67;;;;;;;-148.15;100.00;61821.78;4901861;29;20033;-96
2023/09/24 04:34:12;;;;;;;10.13;5.88;;;;;;;-148.15;100.00;61821.78;4917413;29;20062;-96
2023/09/24 04:36:42;;;;;;;10.90;6.15;;;;;;;-148.15;100.00;61821.78;4919985;29;20038;-96
2023/09/24 04:39:11;;;;;;;10.93;6.22;;;;;;;-148.15;100.00;61821.78;4906644;29;20036;-96
2023/09/24 04:41:42;;;;;;;11.13;5.95;;;;;;;-148.15;100.00;61821.78;4927135;29;20108;-96
2023/09/24 04:44:08;;;;;;;9.70;6.17;;;;;;;-148.15;100.00;61821.78;4934035;29;20046;-96
2023/09/24 04:46:33;;;;;;;13.67;6.63;;;;;;;-148.15;100.00;61821.78;4940247;29;20276;-96
2023/09/24 04:49:02;;;;;;;10.30;6.38;;;;;;;-148.15;100.00;61821.78;4939851;29;20020;-96
2023/09/24 04:51:28;;;;;;;10.20;5.70;;;;;;;-148.15;100.00;61821.78;4923159;29;20040;-96
2023/09/24 04:53:53;;;;;;;14.77;6.75;;;;;;;-148.15;100.00;61821.78;4921040;29;20028;-96
2023/09/24 04:56:19;;;;;;;9.20;5.73;;;;;;;-148.15;100.00;61821.78;4921008;29;20052;-96
2023/09/24 04:58:44;;;;;;;12.13;6.43;;;;;;;-148.15;100.00;61821.78;4932920;29;20028;-94
2023/09/24 05:01:10;;;;;;;7.45;5.75;;;;;;;-148.15;100.00;61821.78;4926511;29;20049;-95
2023/09/24 05:03:37;;;;;;;13.67;6.07;;;;;;;-148.15;100.00;61821.78;4905871;29;20131;-86
2023/09/24 05:06:05;;;;;;;9.85;6.18;;;;;;;-148.15;100.00;61821.78;4895254;29;20040;-85
2023/09/24 05:08:32;;;;;;;12.82;6.68;;;;;;;-148.15;100.00;61821.78;4895504;29;20032;-86
2023/09/24 05:10:58;;;;;;;11.60;6.78;;;;;;;-148.15;100.00;61821.78;4902449;29;20548;-86
2023/09/24 05:13:23;;;;;;;13.40;6.93;;;;;;;-148.15;100.00;61821.78;4908988;29;20108;-85
2023/09/24 05:15:59;;;;;;;11.37;7.23;;;;;;;-148.15;100.00;61821.78;4903763;29;20308;-86
2023/09/24 05:18:29;;;;;;;15.25;6.35;;;;;;;-148.15;100.00;61821.78;4914005;29;20051;-88
2023/09/24 05:20:54;;;;;;;11.97;6.40;;;;;;;-148.15;100.00;61821.78;4898439;29;20040;-85
2023/09/24 05:23:21;;;;;;;11.37;5.80;;;;;;;-148.15;100.00;61821.78;4896462;29;20291;-85
2023/09/24 05:25:46;;;;;;;10.80;6.38;;;;;;;-148.15;100.00;61821.78;4905960;29;20031;-85
2023/09/24 05:28:12;;;;;;;16.13;6.82;;;;;;;-148.15;100.00;61821.78;4913701;29;20036;-86
2023/09/24 05:30:38;;;;;;;11.40;6.60;;;;;;;-148.15;100.00;61821.78;4914355;29;20485;-86
2023/09/24 05:33:04;;;;;;;18.75;6.53;;;;;;;-148.15;100.00;61821.78;4901766;29;20032;-85
2023/09/24 05:35:30;;;;;;;12.53;6.93;;;;;;;-148.15;100.00;61821.78;4895334;29;20487;-85
2023/09/24 05:37:55;;;;;;;15.35;6.45;;;;;;;-148.15;100.00;61821.78;4894884;29;20141;-85
2023/09/24 05:40:20;;;;;;;17.23;6.50;;;;;;;-148.15;100.00;61821.78;4895510;29;20125;-87
2023/09/24 05:42:46;;;;;;;12.13;6.70;;;;;;;-148.15;100.00;61821.78;4900523;29;20476;-85
2023/09/24 05:45:11;;;;;;;10.95;5.90;;;;;;;-148.15;100.00;61821.78;4913786;29;20453;-85
2023/09/24 05:47:37;;;;;;;10.23;6.00;;;;;;;-148.15;100.00;61821.78;4906691;29;20032;-85
2023/09/24 05:50:03;;;;;;;12.10;6.60;;;;;;;-148.15;100.00;61821.78;4894572;29;20501;-85
2023/09/24 05:52:29;;;;;;;12.50;6.25;;;;;;;-148.15;100.00;61821.78;4883843;29;20119;-87
2023/09/24 05:54:55;;;;;;;12.10;6.80;;;;;;;-148.15;100.00;61821.78;4905453;29;20393;-85
2023/09/24 05:57:21;;;;;;;11.43;6.80;;;;;;;-148.15;100.00;61821.78;4897361;29;20117;-86
2023/09/24 05:59:46;;;;;;;15.38;7.18;;;;;;;-148.15;100.00;61821.78;4900168;29;20043;-86
2023/09/24 06:02:11;;;;;;;12.97;6.73;;;;;;;-148.15;100.00;61821.78;4896922;29;20040;-87
2023/09/24 06:04:37;;;;;;;15.30;6.10;;;;;;;-148.15;100.00;61821.78;4910099;29;20628;-85
2023/09/24 06:07:02;;;;;;;9.57;6.20;;;;;;;-148.15;100.00;61821.78;4902800;29;20069;-86
2023/09/24 06:09:30;;;;;;;13.57;6.10;;;;;;;-148.15;100.00;61821.78;4908381;29;20028;-85
2023/09/24 06:11:55;;;;;;;12.65;6.35;;;;;;;-148.15;100.00;61821.78;4903703;29;20165;-86
2023/09/24 06:14:21;;;;;;;13.23;6.10;;;;;;;-148.15;100.00;61821.78;4901942;29;20504;-86
2023/09/24 06:16:46;;;;;;;11.73;6.32;;;;;;;-148.15;100.00;61821.78;4903065;29;20086;-84
2023/09/24 06:19:11;;;;;;;11.73;6.67;;;;;;;-148.15;100.00;61821.78;4896416;29;20767;-86
2023/09/24 06:21:37;;;;;;;14.07;6.90;;;;;;;-148.15;100.00;61821.78;4880856;29;20127;-88
2023/09/24 06:24:02;;;;;;;11.40;6.50;;;;;;;-148.15;100.00;61821.78;4909120;29;20032;-86
2023/09/24 06:26:30;;;;;;;17.40;7.38;;;;;;;-148.15;100.00;61821.78;4914361;29;20123;-84
2023/09/24 06:28:56;;;;;;;11.03;6.83;;;;;;;-148.15;100.00;61821.78;4894572;29;20641;-84
2023/09/24 06:31:21;;;;;;;14.90;6.97;;;;;;;-148.15;100.00;61821.78;4896470;29;20402;-83
2023/09/24 06:33:47;;;;;;;13.27;6.50;;;;;;;-148.15;100.00;61821.78;4905997;29;20102;-84
2023/09/24 06:36:12;;;;;;;12.82;6.97;;;;;;;-148.15;100.00;61821.78;4928318;29;20486;-83
2023/09/24 06:38:37;;;;;;;13.00;6.23;;;;;;;-148.15;100.00;61821.78;4894951;29;20087;-83
2023/09/24 06:41:03;;;;;;;15.10;7.20;;;;;;;-148.15;100.00;61821.78;4903351;29;20448;-86
2023/09/24 06:43:33;;;;;;;11.63;6.00;;;;;;;-148.15;100.00;61821.78;4906784;29;20051;-84
2023/09/24 06:46:04;;;;;;;11.07;5.90;;;;;;;-148.15;100.00;61821.78;4895088;29;20181;-84
2023/09/24 06:48:30;;;;;;;11.13;5.77;;;;;;;-148.15;100.00;61821.78;4909513;29;20379;-84
2023/09/24 06:51:04;;;;;;;13.60;6.07;;;;;;;-148.15;100.00;61821.78;4896630;29;20115;-87
2023/09/24 06:53:29;;;;;;;12.93;6.15;;;;;;;-148.15;100.00;61821.78;4896039;29;20079;-87
2023/09/24 06:55:57;;;;;;;15.27;6.40;;;;;;;-148.15;100.00;61821.78;4904227;29;20427;-85
2023/09/24 06:58:22;;;;;;;14.85;6.75;;;;;;;-148.15;100.00;61821.78;4916250;29;20068;-85
2023/09/24 07:00:47;;;;;;;13.67;5.90;;;;;;;-148.15;100.00;61821.78;4913777;29;20067;-86
2023/09/24 07:03:12;;;;;;;13.40;6.93;;;;;;;-148.15;100.00;61821.78;4898512;29;20161;-85
2023/09/24 07:05:38;;;;;;;14.53;6.37;;;;;;;-148.15;100.00;61821.78;4911675;29;20080;-85
2023/09/24 07:08:04;;;;;;;17.80;6.28;;;;;;;-148.15;100.00;61821.78;4904316;29;20076;-85
2023/09/24 07:10:29;;;;;;;13.77;5.95;;;;;;;-148.15;100.00;61821.78;4892910;29;20032;-85
2023/09/24 07:12:55;;;;;;;17.97;6.47;;;;;;;-148.15;100.00;61821.78;4892110;29;20028;-85
2023/09/24 07:15:20;;;;;;;14.67;6.57;;;;;;;-148.15;100.00;61821.78;4914403;29;20132;-85
2023/09/24 07:17:45;;;;;;;17.97;7.23;;;;;;;-148.15;100.00;61821.78;4890019;29;20043;-83
2023/09/24 07:20:12;;;;;;;13.98;6.97;;;;;;;-148.15;100.00;61821.78;4899520;29;20366;-83
2023/09/24 07:22:37;;;;;;;17.77;6.20;;;;;;;-148.15;100.00;61821.78;4910777;29;20441;-83
2023/09/24 07:25:03;;;;;;;13.40;5.75;;;;;;;-148.15;100.00;61821.78;4898095;29;20036;-83
2023/09/24 07:27:28;;;;;;;14.77;5.90;;;;;;;-148.15;100.00;61821.78;4922890;29;20053;-82
2023/09/24 07:29:55;;;;;;;14.68;5.80;;;;;;;-148.15;100.00;61821.78;4910037;29;20727;-83
2023/09/24 07:32:20;;;;;;;12.97;6.10;;;;;;;-148.15;100.00;61821.78;4911087;29;20111;-84
2023/09/24 07:34:46;;;;;;;21.17;6.05;;;;;;;-148.15;100.00;61821.78;4916039;29;20115;-85
2023/09/24 07:37:13;;;;;;;11.53;5.33;;;;;;;-148.15;100.00;61821.78;4901508;29;20067;-84
2023/09/24 07:39:39;;;;;;;12.90;5.15;;;;;;;-148.15;100.00;61821.78;4911940;29;20038;-83
2023/09/24 07:42:05;;;;;;;11.15;5.10;;;;;;;-148.15;100.00;61821.78;4914381;29;20107;-83
2023/09/24 07:44:30;;;;;;;10.30;5.18;;;;;;;-148.15;100.00;61821.78;4914704;29;20429;-83
2023/09/24 07:46:56;;;;;;;13.80;5.30;;;;;;;-148.15;100.00;61821.78;4900576;29;20105;-83
2023/09/24 07:49:21;;;;;;;12.80;5.23;;;;;;;-148.15;100.00;61821.78;4905070;29;20111;-84
2023/09/24 07:51:46;;;;;;;11.63;5.27;;;;;;;-148.15;100.00;61821.78;4916579;29;20029;-83
2023/09/24 07:54:13;;;;;;;10.17;5.07;;;;;;;-148.15;100.00;61821.78;4905264;29;20488;-83
2023/09/24 07:56:41;;;;;;;11.80;4.82;;;;;;;-148.15;100.00;61821.78;4896605;29;20060;-84
2023/09/24 07:59:07;;;;;;;9.70;4.80;;;;;;;-148.15;100.00;61821.78;4898131;29;20082;-84
2023/09/24 08:01:33;;;;;;;10.07;3.70;;;;;;;-148.15;100.00;61821.78;4905374;29;20028;-84
2023/09/24 08:03:59;;;;;;;11.90;3.80;;;;;;;-148.15;100.00;61821.78;4915001;29;20040;-85
2023/09/24 08:06:27;;;;;;;8.73;4.28;;;;;;;-148.15;100.00;61821.78;4904006;29;20073;-85
2023/09/24 08:08:53;;;;;;;10.60;4.15;;;;;;;-148.15;100.00;61821.78;4907087;29;20486;-83
2023/09/24 08:11:18;;;;;;;10.03;3.67;;;;;;;-148.15;100.00;61821.78;4903680;29;20057;-83
2023/09/24 08:13:43;;;;;;;8.37;3.73;;;;;;;-148.15;100.00;61821.78;4904206;29;20029;-84
2023/09/24 08:16:09;;;;;;;7.43;3.17;;;;;;;-148.15;100.00;61821.78;4901492;29;20100;-84
2023/09/24 08:18:34;;;;;;;7.82;3.17;;;;;;;-148.15;100.00;61821.78;4914287;29;20020;-84
2023/09/24 08:20:59;;;;;;;11.00;3.23;;;;;;;-148.15;100.00;61821.78;4914805;29;20032;-84
2023/09/24 08:23:25;;;;;;;7.60;3.30;;;;;;;-148.15;100.00;61821.78;4912113;29;20040;-84
2023/09/24 08:25:51;;;;;;;7.23;2.97;;;;;;;-148.15;100.00;61821.78;4902542;29;20110;-84
2023/09/24 08:28:17;;;;;;;7.63;2.60;;;;;;;-148.15;100.00;61821.78;4903237;29;20032;-84
2023/09/24 08:30:43;;;;;;;5.53;2.80;;;;;;;-148.15;100.00;61821.78;4899055;29;20040;-84
2023/09/24 08:33:09;;;;;;;8.70;2.75;;;;;;;-148.15;100.00;61821.78;4909612;29;20092;-85
2023/09/24 08:35:36;;;;;;;6.57;2.63;;;;;;;-148.15;100.00;61821.78;4911534;29;20024;-85
2023/09/24 08:38:02;;;;;;;7.47;2.80;;;;;;;-148.15;100.00;61821.78;4906766;29;20036;-85
2023/09/24 08:40:30;;;;;;;5.45;2.33;;;;;;;-148.15;100.00;61821.78;4898929;29;20412;-84
2023/09/24 08:42:56;;;;;;;5.63;2.57;;;;;;;-148.15;100.00;61821.78;4896926;29;20028;-84
2023/09/24 08:45:26;;;;;;;7.50;1.98;;;;;;;-148.15;100.00;61821.78;4896992;29;20485;-85
2023/09/24 08:47:52;;;;;;;4.43;2.10;;;;;;;-148.15;100.00;61821.78;4889271;29;20037;-85
2023/09/24 08:50:18;;;;;;;5.28;2.40;;;;;;;-148.15;100.00;61821.78;4896147;29;20116;-87
2023/09/24 08:52:45;;;;;;;5.45;1.88;;;;;;;-148.15;100.00;61821.78;4900999;29;20028;-87
2023/09/24 08:55:12;;;;;;;7.10;1.95;;;;;;;-148.15;100.00;61821.78;4914952;29;20028;-85
2023/09/24 08:57:39;;;;;;;3.90;1.83;;;;;;;-148.15;100.00;61821.78;4895946;29;20036;-87
2023/09/24 09:00:06;;;;;;;5.20;1.70;;;;;;;-148.15;100.00;61821.78;4895159;29;20115;-87
2023/09/24 09:02:32;;;;;;;5.47;1.90;;;;;;;-148.15;100.00;61821.78;4899911;29;20027;-84
2023/09/24 09:04:58;;;;;;;4.70;1.83;;;;;;;-148.15;100.00;61821.78;4885539;29;20477;-85
2023/09/24 09:07:23;;;;;;;10.60;2.28;;;;;;;-148.15;100.00;61821.78;4894562;29;20079;-86
2023/09/24 09:09:56;;;;;;;7.80;2.07;;;;;;;-148.15;100.00;61821.78;4898487;29;20032;-85
2023/09/24 09:12:25;;;;;;;6.07;1.67;;;;;;;-148.15;100.00;61821.78;4908700;29;20024;-84
2023/09/24 09:14:51;;;;;;;6.13;1.50;;;;;;;-148.15;100.00;61821.78;4906461;29;20473;-86
2023/09/24 09:17:17;;;;;;;8.87;1.70;;;;;;;-148.15;100.00;61821.78;4909643;29;20024;-86
2023/09/24 09:19:48;;;;;;;4.97;1.70;;;;;;;-148.15;100.00;61821.78;4912426;29;20397;-85
2023/09/24 09:22:17;;;;;;;4.07;1.30;;;;;;;-148.15;100.00;61821.78;4904008;29;20062;-85
2023/09/24 09:24:43;;;;;;;4.57;1.47;;;;;;;-148.15;100.00;61821.78;4907711;29;20118;-85
2023/09/24 09:27:08;;;;;;;3.50;1.50;;;;;;;-148.15;100.00;61821.78;4900136;29;20308;-85
2023/09/24 09:29:33;;;;;;;7.33;1.73;;;;;;;-148.15;100.00;61821.78;4903504;29;20080;-85
2023/09/24 09:31:59;;;;;;;3.57;1.40;;;;;;;-148.15;100.00;61821.78;4903530;29;20080;-85
2023/09/24 09:34:24;;;;;;;6.13;1.77;;;;;;;-148.15;100.00;61821.78;4903358;29;20033;-85
2023/09/24 09:36:50;;;;;;;5.47;1.77;;;;;;;-148.15;100.00;61821.78;4906638;29;20031;-86
2023/09/24 09:39:15;;;;;;;7.80;1.52;;;;;;;-148.15;100.00;61821.78;4913632;29;20040;-85
2023/09/24 09:41:42;;;;;;;5.43;1.53;;;;;;;-148.15;100.00;61821.78;4899414;29;20154;-84
2023/09/24 09:44:08;;;;;;;4.15;1.60;;;;;;;-148.15;100.00;61821.78;4912214;29;20035;-85
2023/09/24 09:46:34;;;;;;;4.53;1.60;;;;;;;-148.15;100.00;61821.78;4903656;29;20104;-85
2023/09/24 09:49:10;;;;;;;3.40;1.33;;;;;;;-148.15;100.00;61821.78;4895262;29;20307;-85
2023/09/24 09:51:40;;;;;;;4.72;1.50;;;;;;;-148.15;100.00;61821.78;4903348;29;20024;-85
2023/09/24 09:54:07;;;;;;;3.97;1.38;;;;;;;-148.15;100.00;61821.78;4904433;29;20091;-85
2023/09/24 09:56:35;;;;;;;4.40;1.25;;;;;;;-148.15;100.00;61821.78;4900955;29;20031;-86
2023/09/24 09:59:01;;;;;;;4.97;1.35;;;;;;;-148.15;100.00;61821.78;4907295;29;20061;-86
2023/09/24 10:01:26;;;;;;;4.57;1.50;;;;;;;-148.15;100.00;61821.78;4895108;29;20029;-86
2023/09/24 10:03:53;;;;;;;5.10;1.50;;;;;;;-148.15;100.00;61821.78;4912774;29;20132;-86
2023/09/24 10:06:20;;;;;;;2.33;1.20;;;;;;;-148.15;100.00;61821.78;4912120;29;20459;-86
2023/09/24 10:08:49;;;;;;;4.60;1.47;;;;;;;-148.15;100.00;61821.78;4913331;29;20292;-86
2023/09/24 10:11:41;;;;;;;3.92;1.10;;;;;;;-148.15;100.00;61821.78;4907543;29;20024;-87
2023/09/24 10:14:08;;;;;;;3.58;1.05;;;;;;;-148.15;100.00;61821.78;4871132;29;20048;-87
2023/09/24 10:16:36;;;;;;;4.35;1.40;;;;;;;-148.15;100.00;61821.78;4905266;29;20024;-87
2023/09/24 10:19:04;;;;;;;2.80;1.30;;;;;;;-148.15;100.00;61821.78;4909978;29;20043;-86
2023/09/24 10:21:36;;;;;;;3.80;1.35;;;;;;;-148.15;100.00;61821.78;4897991;29;20036;-87
2023/09/24 10:24:13;;;;;;;5.33;1.40;;;;;;;-148.15;100.00;61821.78;4887646;29;20037;-85
2023/09/24 10:26:48;;;;;;;4.17;1.00;;;;;;;-148.15;100.00;61821.78;4909103;29;20455;-86
2023/09/24 10:29:15;;;;;;;4.22;1.38;;;;;;;-148.15;100.00;61821.78;4909157;29;20057;-85
2023/09/24 10:32:08;;;;;;;3.65;1.27;;;;;;;-148.15;100.00;61821.78;4916164;29;20088;-85
2023/09/24 10:34:55;;;;;;;3.40;1.50;;;;;;;-148.15;100.00;61821.78;4905420;29;20038;-85
2023/09/24 10:37:22;;;;;;;5.03;1.48;;;;;;;-148.15;100.00;61821.78;4915280;29;20107;-84
2023/09/24 10:40:00;;;;;;;4.00;1.20;;;;;;;-148.15;100.00;61821.78;4915708;29;20042;-84
2023/09/24 10:42:30;;;;;;;2.70;1.43;;;;;;;-148.15;100.00;61821.78;4896706;29;20300;-84
2023/09/24 10:45:08;;;;;;;3.65;0.90;;;;;;;-148.15;100.00;61821.78;4897423;29;20381;-85
2023/09/24 10:47:36;;;;;;;4.10;1.30;;;;;;;-148.15;100.00;61821.78;4898485;29;20041;-84
2023/09/24 10:50:04;;;;;;;4.70;1.40;;;;;;;-148.15;100.00;61821.78;4897449;29;20029;-86
2023/09/24 10:52:59;;;;;;;2.65;1.15;;;;;;;-148.15;100.00;61821.78;4915319;29;20028;-85
2023/09/24 10:55:30;;;;;;;2.60;1.20;;;;;;;-148.15;100.00;61821.78;4912019;29;20095;-85
2023/09/24 10:57:57;;;;;;;5.23;1.40;;;;;;;-148.15;100.00;61821.78;4912960;29;20292;-85
2023/09/24 11:00:25;;;;;;;6.05;1.30;;;;;;;-148.15;100.00;61821.78;4897642;29;20037;-85
2023/09/24 11:02:55;;;;;;;2.92;1.30;;;;;;;-148.15;100.00;61821.78;4897664;29;20037;-86